Time;durP1;ratioP1;P1;durP2;ratioP2;P2;SDS_P1;SDS_P2;PMS_P1;PMS_P2;Temp;Humidity;BMP_temperature;BMP_pressure;BME280_temperature;BME280_humidity;BME280_pressure;Samples;Min_cycle;Max_cycle;Signal;HPM_P1;HPM_P2
2023/12/16 00:00:01;;;;;;;0.77;0.77;;;6.90;99.90;;;;;;4445664;32;20057;-59
2023/12/16 00:02:26;;;;;;;4.80;2.65;;;6.90;99.90;;;;;;4445510;32;20060;-57
2023/12/16 00:04:52;;;;;;;1.35;1.17;;;6.90;99.90;;;;;;4445184;32;20057;-60
2023/12/16 00:07:17;;;;;;;10.45;2.12;;;6.90;99.90;;;;;;4447065;32;20508;-59
2023/12/16 00:09:43;;;;;;;4.82;1.27;;;6.90;99.90;;;;;;4444920;32;20078;-58
2023/12/16 00:12:08;;;;;;;4.53;1.83;;;6.90;99.90;;;;;;4444858;32;20076;-59
2023/12/16 00:14:36;;;;;;;3.47;1.05;;;6.90;99.90;;;;;;4447111;32;20089;-60
2023/12/16 00:17:01;;;;;;;34.70;2.00;;;6.90;99.90;;;;;;4446631;32;20066;-60
2023/12/16 00:19:27;;;;;;;0.62;0.62;;;6.90;99.90;;;;;;4440131;32;20068;-59
2023/12/16 00:21:53;;;;;;;2.05;1.35;;;6.90;99.90;;;;;;4444875;32;20073;-61
2023/12/16 00:24:18;;;;;;;1.98;1.37;;;6.90;99.90;;;;;;4446415;32;20057;-61
2023/12/16 00:26:44;;;;;;;2.85;0.77;;;6.90;99.90;;;;;;4447180;32;20074;-61
2023/12/16 00:29:09;;;;;;;0.95;0.82;;;6.90;99.90;;;;;;4443089;32;20057;-60
2023/12/16 00:31:34;;;;;;;8.45;1.23;;;6.90;99.90;;;;;;4443346;32;20085;-61
2023/12/16 00:34:00;;;;;;;3.20;2.55;;;7.00;99.90;;;;;;4443012;32;20050;-59
2023/12/16 00:36:25;;;;;;;15.45;2.15;;;6.90;99.90;;;;;;4444652;32;20061;-61
2023/12/16 00:38:51;;;;;;;3.03;1.33;;;6.90;99.90;;;;;;4444897;32;20018;-61
2023/12/16 00:41:16;;;;;;;29.37;3.75;;;6.90;99.90;;;;;;4444538;32;20114;-61
2023/12/16 00:43:42;;;;;;;1.75;0.60;;;6.90;99.90;;;;;;4447491;32;20050;-61
2023/12/16 00:46:08;;;;;;;1.27;1.23;;;6.90;99.90;;;;;;4446707;32;20107;-60
2023/12/16 00:48:34;;;;;;;0.85;0.85;;;6.90;99.90;;;;;;4443142;32;20055;-60
2023/12/16 00:51:00;;;;;;;1.52;1.42;;;6.90;99.90;;;;;;4443963;32;20072;-60
2023/12/16 00:53:25;;;;;;;3.12;0.73;;;6.90;99.90;;;;;;4444596;32;20157;-61
2023/12/16 00:55:51;;;;;;;3.37;1.42;;;6.90;99.90;;;;;;4448265;32;20082;-61
2023/12/16 00:58:16;;;;;;;0.80;0.80;;;6.90;99.90;;;;;;4444488;32;20180;-61
2023/12/16 01:00:42;;;;;;;4.03;2.20;;;6.90;99.90;;;;;;4445878;32;20084;-61
2023/12/16 01:03:08;;;;;;;3.90;1.10;;;6.90;99.90;;;;;;4448937;32;20034;-60
2023/12/16 01:05:34;;;;;;;1.37;1.20;;;6.90;99.90;;;;;;4439645;32;20089;-61
2023/12/16 01:07:59;;;;;;;0.75;0.75;;;6.90;99.90;;;;;;4448022;32;20057;-61
2023/12/16 01:10:25;;;;;;;0.70;0.70;;;6.90;99.90;;;;;;4448330;32;20073;-61
2023/12/16 01:12:50;;;;;;;1.60;1.50;;;6.90;99.90;;;;;;4448698;32;20038;-61
2023/12/16 01:15:15;;;;;;;2.37;1.17;;;6.90;99.90;;;;;;4448789;32;20057;-60
2023/12/16 01:17:41;;;;;;;0.93;0.88;;;6.90;99.90;;;;;;4446760;32;20227;-61
2023/12/16 01:20:07;;;;;;;2.85;0.73;;;6.90;99.90;;;;;;4449540;32;20068;-59
2023/12/16 01:22:33;;;;;;;2.85;1.35;;;6.90;99.90;;;;;;4447953;32;20085;-59
2023/12/16 01:24:58;;;;;;;0.88;0.88;;;6.90;99.90;;;;;;4448783;32;20129;-61
2023/12/16 01:27:24;;;;;;;1.20;0.95;;;6.90;99.90;;;;;;4447879;32;20077;-60
2023/12/16 01:29:50;;;;;;;3.40;1.00;;;6.90;99.90;;;;;;4446548;32;20180;-61
2023/12/16 01:32:15;;;;;;;0.40;0.40;;;7.00;99.90;;;;;;4426300;32;20558;-60
2023/12/16 01:34:40;;;;;;;0.65;0.50;;;6.90;99.90;;;;;;4430690;32;20136;-60
2023/12/16 01:37:06;;;;;;;3.22;1.25;;;6.90;99.90;;;;;;4425985;32;20127;-62
2023/12/16 01:39:31;;;;;;;0.77;0.75;;;7.00;99.90;;;;;;4432248;32;20132;-62
2023/12/16 01:41:57;;;;;;;6.05;3.45;;;7.00;99.90;;;;;;4426065;32;20118;-61
2023/12/16 01:44:23;;;;;;;3.37;1.35;;;7.00;99.90;;;;;;4429951;32;20086;-61
2023/12/16 01:46:49;;;;;;;2.85;1.75;;;7.00;99.90;;;;;;4432123;32;20488;-61
2023/12/16 01:49:15;;;;;;;0.40;0.40;;;7.00;99.90;;;;;;4428886;32;20379;-60
2023/12/16 01:51:40;;;;;;;0.60;0.60;;;7.00;99.90;;;;;;4445537;32;20096;-60
2023/12/16 01:54:08;;;;;;;1.95;0.80;;;7.00;99.90;;;;;;4446929;32;20070;-60
2023/12/16 01:56:34;;;;;;;1.85;1.02;;;7.00;99.90;;;;;;4448662;32;20042;-59
2023/12/16 01:59:00;;;;;;;0.90;0.85;;;7.00;99.90;;;;;;4446833;32;20109;-61
2023/12/16 02:01:26;;;;;;;4.72;1.90;;;7.10;99.90;;;;;;4446782;32;20093;-60
2023/12/16 02:03:52;;;;;;;0.40;0.40;;;7.10;99.90;;;;;;4447388;32;20085;-60
2023/12/16 02:06:18;;;;;;;0.73;0.73;;;7.10;99.90;;;;;;4446485;32;20065;-60
2023/12/16 02:08:44;;;;;;;4.18;0.68;;;7.10;99.90;;;;;;4447657;32;20093;-60
2023/12/16 02:11:12;;;;;;;6.55;1.42;;;7.10;99.90;;;;;;4448154;32;20111;-60
2023/12/16 02:13:37;;;;;;;6.18;1.08;;;7.10;99.90;;;;;;4446549;32;20082;-60
2023/12/16 02:16:03;;;;;;;3.72;1.42;;;7.10;99.90;;;;;;4447707;32;20077;-58
2023/12/16 02:18:29;;;;;;;40.78;1.62;;;7.10;99.90;;;;;;4444484;32;20161;-59
2023/12/16 02:20:54;;;;;;;3.30;1.80;;;7.10;99.90;;;;;;4445385;32;20065;-58
2023/12/16 02:23:20;;;;;;;5.93;1.33;;;7.20;99.90;;;;;;4446042;32;20074;-58
2023/12/16 02:25:46;;;;;;;4.30;1.50;;;7.20;99.90;;;;;;4442537;32;20046;-59
2023/12/16 02:28:11;;;;;;;2.00;1.40;;;7.10;99.90;;;;;;4448887;32;20085;-59
2023/12/16 02:30:37;;;;;;;3.87;1.42;;;7.20;99.90;;;;;;4446668;32;20109;-59
2023/12/16 02:33:03;;;;;;;17.95;1.45;;;7.20;99.90;;;;;;4449503;32;20061;-59
2023/12/16 02:35:31;;;;;;;1.23;1.12;;;7.20;99.90;;;;;;4446343;32;20065;-59
2023/12/16 02:37:57;;;;;;;1.35;1.27;;;7.20;99.90;;;;;;4448015;32;20089;-58
2023/12/16 02:40:22;;;;;;;4.07;1.87;;;7.20;99.90;;;;;;4446210;32;20069;-59
2023/12/16 02:42:47;;;;;;;7.95;1.37;;;7.20;99.90;;;;;;4444849;32;20781;-59
2023/12/16 02:45:13;;;;;;;0.60;0.60;;;7.20;99.90;;;;;;4444925;32;20190;-58
2023/12/16 02:47:39;;;;;;;3.95;1.58;;;7.20;99.90;;;;;;4446411;32;20065;-58
2023/12/16 02:50:07;;;;;;;15.13;2.35;;;7.20;99.90;;;;;;4441267;32;20081;-60
2023/12/16 02:52:32;;;;;;;3.47;2.15;;;7.20;99.90;;;;;;4423259;32;20065;-59
2023/12/16 02:54:58;;;;;;;2.40;0.77;;;7.20;99.90;;;;;;4427386;32;20061;-59
2023/12/16 02:57:23;;;;;;;0.60;0.60;;;7.10;99.90;;;;;;4427864;32;20065;-59
2023/12/16 02:59:49;;;;;;;13.23;2.67;;;7.10;99.90;;;;;;4424096;32;20124;-61
2023/12/16 03:02:14;;;;;;;0.82;0.75;;;7.20;99.90;;;;;;4429226;32;20073;-60
2023/12/16 03:04:40;;;;;;;1.58;1.48;;;7.20;99.90;;;;;;4420928;32;20544;-60
2023/12/16 03:07:05;;;;;;;3.50;1.08;;;7.20;99.90;;;;;;4426737;32;20135;-59
2023/12/16 03:09:31;;;;;;;2.30;1.58;;;7.20;99.90;;;;;;4428005;32;20521;-59
2023/12/16 03:11:56;;;;;;;9.23;2.90;;;7.20;99.90;;;;;;4424565;32;20085;-60
2023/12/16 03:14:22;;;;;;;1.65;1.55;;;7.20;99.90;;;;;;4426630;32;20085;-60
2023/12/16 03:16:47;;;;;;;0.93;0.82;;;7.20;99.90;;;;;;4426297;32;20529;-58
2023/12/16 03:19:13;;;;;;;8.27;1.52;;;7.20;99.90;;;;;;4427024;32;20069;-60
2023/12/16 03:21:39;;;;;;;0.60;0.60;;;7.30;99.90;;;;;;4425185;32;20126;-59
2023/12/16 03:24:05;;;;;;;0.62;0.62;;;7.20;99.90;;;;;;4424761;32;20081;-60
2023/12/16 03:26:30;;;;;;;0.77;0.77;;;7.30;99.90;;;;;;4424531;32;20503;-60
2023/12/16 03:28:56;;;;;;;1.12;1.08;;;7.30;99.90;;;;;;4423032;32;20113;-59
2023/12/16 03:31:21;;;;;;;11.57;1.87;;;7.30;99.90;;;;;;4423799;32;20073;-60
2023/12/16 03:33:47;;;;;;;5.35;1.65;;;7.30;99.90;;;;;;4428143;32;20150;-60
2023/12/16 03:36:12;;;;;;;4.28;2.75;;;7.30;99.90;;;;;;4425980;32;20076;-59
2023/12/16 03:38:41;;;;;;;6.65;1.60;;;7.30;99.90;;;;;;4425343;32;20128;-59
2023/12/16 03:41:06;;;;;;;1.12;1.02;;;7.30;99.90;;;;;;4423959;32;20591;-60
2023/12/16 03:43:32;;;;;;;3.62;1.30;;;7.30;99.90;;;;;;4426713;32;20076;-60
2023/12/16 03:45:57;;;;;;;5.30;1.58;;;7.30;99.90;;;;;;4422906;32;20413;-60
2023/12/16 03:48:23;;;;;;;1.30;1.20;;;7.30;99.90;;;;;;4424183;32;20077;-60
2023/12/16 03:50:49;;;;;;;5.03;2.37;;;7.30;99.90;;;;;;4422912;32;20090;-60
2023/12/16 03:53:15;;;;;;;0.95;0.88;;;7.30;99.90;;;;;;4424263;32;20088;-59
2023/12/16 03:55:40;;;;;;;5.32;2.20;;;7.30;99.90;;;;;;4424550;32;20085;-59
2023/12/16 03:58:06;;;;;;;0.70;0.70;;;7.30;99.90;;;;;;4425754;32;20065;-59
2023/12/16 04:00:32;;;;;;;0.77;0.77;;;7.30;99.90;;;;;;4427779;32;20552;-58
2023/12/16 04:02:57;;;;;;;0.93;0.90;;;7.30;99.90;;;;;;4426683;32;20081;-59
2023/12/16 04:05:23;;;;;;;2.20;1.65;;;7.30;99.90;;;;;;4426852;32;20089;-60
2023/12/16 04:07:48;;;;;;;0.62;0.62;;;7.30;99.90;;;;;;4424122;32;20119;-59
2023/12/16 04:10:14;;;;;;;1.85;1.65;;;7.20;99.90;;;;;;4425680;32;20073;-58
2023/12/16 04:12:40;;;;;;;0.70;0.70;;;7.20;99.90;;;;;;4426621;32;20556;-59
2023/12/16 04:15:06;;;;;;;1.70;0.70;;;7.20;99.90;;;;;;4409926;32;20089;-59
2023/12/16 04:17:31;;;;;;;4.05;2.00;;;7.20;99.90;;;;;;4425570;32;20089;-59
2023/12/16 04:19:57;;;;;;;3.85;1.70;;;7.20;99.90;;;;;;4419476;32;20065;-59
2023/12/16 04:22:22;;;;;;;1.83;1.33;;;7.20;99.90;;;;;;4426330;32;20572;-58
2023/12/16 04:24:50;;;;;;;1.98;1.10;;;7.10;99.90;;;;;;4425425;32;20081;-60
2023/12/16 04:27:15;;;;;;;3.58;1.25;;;7.10;99.90;;;;;;4427780;32;20078;-60
2023/12/16 04:29:41;;;;;;;4.37;1.92;;;7.10;99.90;;;;;;4420986;32;20073;-60
2023/12/16 04:32:06;;;;;;;5.47;2.95;;;7.10;99.90;;;;;;4428234;32;20086;-60
2023/12/16 04:34:32;;;;;;;6.37;1.60;;;7.10;99.90;;;;;;4428479;32;20128;-60
2023/12/16 04:36:57;;;;;;;1.27;1.15;;;7.10;99.90;;;;;;4428937;32;20086;-59
2023/12/16 04:39:23;;;;;;;0.68;0.65;;;7.10;99.90;;;;;;4427839;32;20132;-60
2023/12/16 04:41:48;;;;;;;2.45;1.45;;;7.10;99.90;;;;;;4430337;32;20062;-59
2023/12/16 04:44:13;;;;;;;3.47;1.48;;;7.10;99.90;;;;;;4429495;32;20130;-59
2023/12/16 04:46:39;;;;;;;9.98;2.40;;;7.10;99.90;;;;;;4427892;32;20529;-60
2023/12/16 04:49:04;;;;;;;2.15;1.52;;;7.10;99.90;;;;;;4428541;32;20085;-60
2023/12/16 04:51:30;;;;;;;5.90;2.45;;;7.10;99.90;;;;;;4429334;32;20085;-60
2023/12/16 04:53:56;;;;;;;7.12;3.55;;;7.10;99.90;;;;;;4431391;32;20506;-59
2023/12/16 04:56:22;;;;;;;2.03;1.85;;;7.10;99.90;;;;;;4420253;32;20080;-60
2023/12/16 04:58:50;;;;;;;1.17;1.08;;;7.10;99.90;;;;;;4431189;32;20150;-59
2023/12/16 05:01:15;;;;;;;4.22;1.48;;;7.10;99.90;;;;;;4428636;32;20560;-60
2023/12/16 05:03:41;;;;;;;4.43;1.52;;;7.10;99.90;;;;;;4429175;32;20131;-60
2023/12/16 05:06:07;;;;;;;1.77;1.45;;;7.10;99.90;;;;;;4428301;32;20062;-60
2023/12/16 05:08:33;;;;;;;3.10;0.68;;;7.10;99.90;;;;;;4430487;32;20077;-59
2023/12/16 05:10:58;;;;;;;4.30;1.48;;;7.00;99.90;;;;;;4439121;32;20078;-60
2023/12/16 05:13:24;;;;;;;1.08;0.98;;;7.00;99.90;;;;;;4449511;32;20061;-60
2023/12/16 05:15:51;;;;;;;1.30;1.20;;;7.00;99.90;;;;;;4444615;32;20062;-60
2023/12/16 05:18:17;;;;;;;1.10;1.00;;;7.00;99.90;;;;;;4446922;32;20103;-59
2023/12/16 05:20:42;;;;;;;1.00;0.77;;;7.00;99.90;;;;;;4446464;32;20206;-60
2023/12/16 05:23:08;;;;;;;1.75;1.58;;;7.00;99.90;;;;;;4449440;32;20069;-59
2023/12/16 05:25:33;;;;;;;2.33;1.30;;;6.90;99.90;;;;;;4448231;32;20098;-60
2023/12/16 05:27:59;;;;;;;8.52;1.15;;;6.90;99.90;;;;;;4449245;32;20073;-59
2023/12/16 05:30:24;;;;;;;7.47;1.05;;;6.90;99.90;;;;;;4450591;32;20084;-59
2023/12/16 05:32:50;;;;;;;6.85;1.15;;;6.90;99.90;;;;;;4445255;32;20081;-59
2023/12/16 05:35:16;;;;;;;1.60;1.37;;;6.80;99.90;;;;;;4448055;32;20046;-60
2023/12/16 05:37:41;;;;;;;1.10;0.68;;;6.80;99.90;;;;;;4449401;32;20112;-59
2023/12/16 05:40:07;;;;;;;28.17;1.75;;;6.80;99.90;;;;;;4449811;32;20062;-59
2023/12/16 05:42:33;;;;;;;8.35;1.45;;;6.80;99.90;;;;;;4448136;32;20050;-59
2023/12/16 05:44:58;;;;;;;2.03;1.83;;;6.80;99.90;;;;;;4450743;32;20090;-60
2023/12/16 05:47:23;;;;;;;1.27;0.82;;;6.80;99.90;;;;;;4449983;32;20057;-60
2023/12/16 05:49:50;;;;;;;4.82;1.83;;;6.90;99.90;;;;;;4450726;32;20061;-60
2023/12/16 05:52:15;;;;;;;0.77;0.77;;;6.90;99.90;;;;;;4446770;32;20037;-60
2023/12/16 05:54:41;;;;;;;0.60;0.60;;;6.90;99.90;;;;;;4449820;32;20078;-60
2023/12/16 05:57:06;;;;;;;0.60;0.60;;;6.90;99.90;;;;;;4447928;32;20073;-59
2023/12/16 05:59:34;;;;;;;0.98;0.80;;;6.90;99.90;;;;;;4446116;32;20070;-60
2023/12/16 06:02:00;;;;;;;0.98;0.85;;;6.90;99.90;;;;;;4449326;32;20150;-59
2023/12/16 06:04:25;;;;;;;0.73;0.70;;;6.90;99.90;;;;;;4448832;32;20070;-60
2023/12/16 06:06:51;;;;;;;2.00;0.73;;;6.90;99.90;;;;;;4446753;32;20069;-59
2023/12/16 06:09:16;;;;;;;0.93;0.93;;;7.00;99.90;;;;;;4446358;32;20068;-60
2023/12/16 06:11:42;;;;;;;3.95;1.30;;;7.00;99.90;;;;;;4447416;32;20077;-60
2023/12/16 06:14:07;;;;;;;5.18;1.70;;;7.00;99.90;;;;;;4450623;32;20043;-60
2023/12/16 06:16:33;;;;;;;2.20;1.55;;;7.00;99.90;;;;;;4448144;32;20078;-60
2023/12/16 06:18:59;;;;;;;0.85;0.70;;;7.00;99.90;;;;;;4447800;32;20061;-60
2023/12/16 06:21:25;;;;;;;14.68;3.95;;;7.00;99.90;;;;;;4447462;32;20069;-59
2023/12/16 06:23:50;;;;;;;1.70;1.58;;;7.00;99.90;;;;;;4448010;32;20070;-58
2023/12/16 06:26:16;;;;;;;2.75;1.02;;;7.10;99.90;;;;;;4443094;32;20232;-58
2023/12/16 06:28:42;;;;;;;0.88;0.82;;;7.10;99.90;;;;;;4444733;32;20070;-59
2023/12/16 06:31:14;;;;;;;0.55;0.55;;;7.10;99.90;;;;;;4440445;32;20081;-59
2023/12/16 06:33:39;;;;;;;0.68;0.47;;;7.10;99.90;;;;;;4445649;32;20050;-59
2023/12/16 06:36:05;;;;;;;7.53;0.73;;;7.10;99.90;;;;;;4440620;32;20060;-59
2023/12/16 06:38:31;;;;;;;0.50;0.50;;;7.10;99.90;;;;;;4447294;32;20069;-59
2023/12/16 06:40:56;;;;;;;0.60;0.60;;;7.10;99.90;;;;;;4448085;32;20077;-57
2023/12/16 06:43:21;;;;;;;1.00;0.90;;;7.10;99.90;;;;;;4447921;32;20774;-59
2023/12/16 06:45:47;;;;;;;9.27;1.75;;;7.10;99.90;;;;;;4444831;32;20042;-59
2023/12/16 06:48:12;;;;;;;1.90;0.77;;;7.10;99.90;;;;;;4442445;32;20143;-58
2023/12/16 06:50:38;;;;;;;2.75;1.95;;;7.10;99.90;;;;;;4444663;32;20095;-59
2023/12/16 06:53:03;;;;;;;2.75;0.82;;;7.20;99.90;;;;;;4446983;32;20090;-59
2023/12/16 06:55:29;;;;;;;0.57;0.57;;;7.20;99.90;;;;;;4443654;32;20042;-59
2023/12/16 06:57:54;;;;;;;0.52;0.52;;;7.10;99.90;;;;;;4447283;32;20061;-60
2023/12/16 07:00:20;;;;;;;0.62;0.62;;;7.10;99.90;;;;;;4445230;32;20097;-60
2023/12/16 07:02:45;;;;;;;6.62;1.77;;;7.10;99.90;;;;;;4440664;32;20742;-60
2023/12/16 07:05:11;;;;;;;0.40;0.40;;;7.20;99.90;;;;;;4445859;32;20074;-59
2023/12/16 07:07:36;;;;;;;0.98;0.85;;;7.20;99.90;;;;;;4445913;32;20081;-59
2023/12/16 07:10:04;;;;;;;6.68;1.83;;;7.20;99.90;;;;;;4442988;32;20096;-60
2023/12/16 07:12:29;;;;;;;0.37;0.37;;;7.20;99.90;;;;;;4440086;32;20069;-59
2023/12/16 07:14:54;;;;;;;0.98;0.98;;;7.20;99.90;;;;;;4439970;32;20105;-60
2023/12/16 07:17:20;;;;;;;0.40;0.40;;;7.30;99.90;;;;;;4444614;32;20094;-60
2023/12/16 07:19:45;;;;;;;0.82;0.73;;;7.30;99.90;;;;;;4442849;32;20073;-59
2023/12/16 07:22:15;;;;;;;1.75;1.35;;;7.30;99.90;;;;;;4447403;32;20084;-59
2023/12/16 07:24:40;;;;;;;1.85;0.93;;;7.30;99.90;;;;;;4438983;32;20041;-59
2023/12/16 07:27:06;;;;;;;0.98;0.90;;;7.30;99.90;;;;;;4446580;32;20102;-59
2023/12/16 07:29:35;;;;;;;0.80;0.80;;;7.30;99.90;;;;;;4445529;32;20084;-60
2023/12/16 07:32:01;;;;;;;0.85;0.70;;;7.30;99.90;;;;;;4420935;32;20077;-60
2023/12/16 07:34:26;;;;;;;1.17;1.08;;;7.30;99.90;;;;;;4424477;32;20131;-60
2023/12/16 07:36:52;;;;;;;1.23;1.12;;;7.30;99.90;;;;;;4418611;32;20536;-59
2023/12/16 07:39:19;;;;;;;2.95;1.70;;;7.30;99.90;;;;;;4416579;32;20494;-60
2023/12/16 07:41:45;;;;;;;0.70;0.70;;;7.30;99.90;;;;;;4438944;32;20046;-58
2023/12/16 07:44:11;;;;;;;1.37;1.27;;;7.40;99.90;;;;;;4441009;32;20074;-59
2023/12/16 07:46:39;;;;;;;2.47;1.42;;;7.40;99.90;;;;;;4441679;32;20086;-58
2023/12/16 07:49:04;;;;;;;0.50;0.50;;;7.40;99.90;;;;;;4440556;32;20057;-59
2023/12/16 07:51:30;;;;;;;0.55;0.55;;;7.40;99.90;;;;;;4446041;32;20066;-59
2023/12/16 07:53:55;;;;;;;0.93;0.88;;;7.40;99.90;;;;;;4438807;32;20093;-59
2023/12/16 07:56:22;;;;;;;0.50;0.50;;;7.40;99.90;;;;;;4441637;32;20108;-60
2023/12/16 07:58:49;;;;;;;0.40;0.40;;;7.40;99.90;;;;;;4435880;32;20054;-59
2023/12/16 08:01:15;;;;;;;1.37;1.20;;;7.40;99.90;;;;;;4441151;32;20081;-60
2023/12/16 08:03:41;;;;;;;1.55;1.30;;;7.50;99.90;;;;;;4443730;32;20086;-59
2023/12/16 08:06:09;;;;;;;0.30;0.30;;;7.50;99.90;;;;;;4437897;32;20064;-58
2023/12/16 08:08:35;;;;;;;2.15;0.70;;;7.50;99.90;;;;;;4440937;32;20085;-60
2023/12/16 08:11:01;;;;;;;2.05;0.75;;;7.50;99.90;;;;;;4439237;32;20053;-58
2023/12/16 08:13:27;;;;;;;0.45;0.45;;;7.50;99.90;;;;;;4440914;32;20096;-58
2023/12/16 08:15:52;;;;;;;4.57;1.05;;;7.50;99.90;;;;;;4443025;32;20156;-59
2023/12/16 08:18:18;;;;;;;1.70;1.60;;;7.50;99.90;;;;;;4441339;32;20066;-59
2023/12/16 08:20:43;;;;;;;13.30;1.30;;;7.60;99.90;;;;;;4439035;32;20085;-60
2023/12/16 08:23:09;;;;;;;2.72;2.05;;;7.50;99.90;;;;;;4442216;32;20111;-59
2023/12/16 08:25:35;;;;;;;0.70;0.70;;;7.60;99.90;;;;;;4440163;32;20675;-59
2023/12/16 08:28:01;;;;;;;0.43;0.43;;;7.60;99.90;;;;;;4440501;32;20081;-59
2023/12/16 08:30:27;;;;;;;6.28;1.33;;;7.60;99.90;;;;;;4442405;32;20085;-59
2023/12/16 08:32:53;;;;;;;1.65;1.27;;;7.60;99.90;;;;;;4442094;32;20080;-59
2023/12/16 08:35:18;;;;;;;0.57;0.57;;;7.60;99.90;;;;;;4440731;32;20047;-59
2023/12/16 08:37:43;;;;;;;0.32;0.32;;;7.60;99.90;;;;;;4441338;32;20156;-57
2023/12/16 08:40:10;;;;;;;0.57;0.52;;;7.60;99.90;;;;;;4441911;32;20126;-59
2023/12/16 08:42:35;;;;;;;3.35;1.55;;;7.60;99.90;;;;;;4441727;32;20073;-59
2023/12/16 08:45:02;;;;;;;0.60;0.60;;;7.60;99.90;;;;;;4425851;32;20094;-60
2023/12/16 08:47:28;;;;;;;0.43;0.43;;;7.70;99.90;;;;;;4428571;32;20127;-59
2023/12/16 08:49:54;;;;;;;2.50;1.25;;;7.60;99.90;;;;;;4417423;32;20089;-60
2023/12/16 08:52:19;;;;;;;4.72;0.95;;;7.70;99.90;;;;;;4423344;32;20153;-59
2023/12/16 08:54:45;;;;;;;0.55;0.50;;;7.70;99.90;;;;;;4423063;32;20131;-60
2023/12/16 08:57:10;;;;;;;0.88;0.73;;;7.70;99.90;;;;;;4415481;32;20799;-59
2023/12/16 08:59:36;;;;;;;0.65;0.65;;;7.70;99.90;;;;;;4423473;32;20166;-60
2023/12/16 09:02:02;;;;;;;2.58;0.90;;;7.70;99.90;;;;;;4423143;32;20172;-59
2023/12/16 09:04:28;;;;;;;0.32;0.32;;;7.70;99.90;;;;;;4423570;32;20147;-59
2023/12/16 09:06:54;;;;;;;0.45;0.45;;;7.70;99.90;;;;;;4427857;32;20304;-60
2023/12/16 09:09:20;;;;;;;0.30;0.30;;;7.70;99.90;;;;;;4422702;32;20232;-59
2023/12/16 09:11:46;;;;;;;0.40;0.40;;;7.70;99.90;;;;;;4422434;32;20096;-61
2023/12/16 09:14:12;;;;;;;1.27;1.12;;;7.70;99.90;;;;;;4427155;32;20404;-59
2023/12/16 09:16:37;;;;;;;3.87;0.57;;;7.70;99.90;;;;;;4418515;32;20061;-60
2023/12/16 09:19:03;;;;;;;0.30;0.30;;;7.70;99.90;;;;;;4417622;32;20102;-59
2023/12/16 09:21:29;;;;;;;0.73;0.73;;;7.70;99.90;;;;;;4415595;32;20088;-60
2023/12/16 09:23:55;;;;;;;1.30;1.17;;;7.70;99.90;;;;;;4418327;32;20077;-60
2023/12/16 09:26:23;;;;;;;0.40;0.40;;;7.80;99.90;;;;;;4415894;32;20139;-61
2023/12/16 09:28:49;;;;;;;0.60;0.60;;;7.80;99.90;;;;;;4423235;32;20073;-61
2023/12/16 09:31:16;;;;;;;1.65;0.98;;;7.80;99.90;;;;;;4419570;32;20505;-58
2023/12/16 09:33:41;;;;;;;0.82;0.82;;;7.80;99.90;;;;;;4419219;32;20081;-60
2023/12/16 09:36:12;;;;;;;2.05;0.60;;;7.80;99.90;;;;;;4420595;32;20508;-60
2023/12/16 09:38:37;;;;;;;0.40;0.40;;;7.90;99.90;;;;;;4415049;32;20481;-60
2023/12/16 09:41:03;;;;;;;5.22;1.10;;;7.90;99.90;;;;;;4419452;32;20085;-60
2023/12/16 09:43:33;;;;;;;0.62;0.62;;;7.90;99.90;;;;;;4421238;32;20057;-60
2023/12/16 09:45:58;;;;;;;1.85;1.35;;;8.00;99.90;;;;;;4420959;32;20085;-59
2023/12/16 09:48:24;;;;;;;1.55;0.60;;;8.10;99.90;;;;;;4416297;32;20097;-61
2023/12/16 09:50:50;;;;;;;0.50;0.50;;;8.30;99.90;;;;;;4415477;32;20147;-60
2023/12/16 09:53:15;;;;;;;0.40;0.40;;;8.40;99.90;;;;;;4413125;32;20081;-60
2023/12/16 09:55:42;;;;;;;0.30;0.30;;;8.50;99.90;;;;;;4415771;32;20074;-61
2023/12/16 09:58:10;;;;;;;0.50;0.50;;;8.50;99.90;;;;;;4418629;32;20511;-60
2023/12/16 10:00:40;;;;;;;0.40;0.40;;;8.50;99.90;;;;;;4411350;32;20073;-59
2023/12/16 10:03:06;;;;;;;6.82;1.10;;;8.50;99.90;;;;;;4417491;32;20536;-62
2023/12/16 10:05:35;;;;;;;1.45;0.90;;;8.50;99.90;;;;;;4415063;32;20379;-59
2023/12/16 10:08:02;;;;;;;0.45;0.45;;;8.50;99.90;;;;;;4423219;32;20508;-61
2023/12/16 10:10:28;;;;;;;0.40;0.40;;;8.50;99.90;;;;;;4418775;32;20065;-60
2023/12/16 10:12:53;;;;;;;0.73;0.73;;;8.50;99.90;;;;;;4420867;32;20069;-61
2023/12/16 10:15:34;;;;;;;1.12;0.90;;;8.50;99.90;;;;;;4421179;32;20224;-60
2023/12/16 10:18:02;;;;;;;0.90;0.88;;;8.40;99.90;;;;;;4416104;32;20509;-60
2023/12/16 10:20:28;;;;;;;1.17;1.05;;;8.40;99.90;;;;;;4412459;32;20181;-60
2023/12/16 10:22:53;;;;;;;2.70;1.55;;;8.40;99.90;;;;;;4414396;32;20097;-60
2023/12/16 10:25:19;;;;;;;0.35;0.35;;;8.50;99.90;;;;;;4415460;32;20085;-60
2023/12/16 10:27:46;;;;;;;0.37;0.37;;;8.50;99.90;;;;;;4418770;32;20085;-60
2023/12/16 10:30:11;;;;;;;1.35;1.25;;;8.50;99.90;;;;;;4417050;32;20548;-59
2023/12/16 10:32:39;;;;;;;1.42;0.60;;;8.50;99.90;;;;;;4417831;32;20104;-60
2023/12/16 10:35:06;;;;;;;5.30;1.12;;;8.60;99.90;;;;;;4421146;32;20061;-60
2023/12/16 10:37:32;;;;;;;2.15;1.33;;;8.70;99.90;;;;;;4418087;32;20077;-58
2023/12/16 10:39:57;;;;;;;0.20;0.20;;;8.70;99.90;;;;;;4420692;32;21001;-60
2023/12/16 10:42:23;;;;;;;0.30;0.30;;;8.80;99.90;;;;;;4421671;32;20081;-58
2023/12/16 10:44:50;;;;;;;0.40;0.40;;;8.80;99.90;;;;;;4422133;32;20078;-60
2023/12/16 10:47:18;;;;;;;0.40;0.40;;;8.90;99.90;;;;;;4421923;32;20073;-60
2023/12/16 10:49:45;;;;;;;1.10;1.02;;;9.10;99.90;;;;;;4415442;32;20172;-61
2023/12/16 10:52:13;;;;;;;0.62;0.62;;;9.20;99.90;;;;;;4417914;32;20085;-60
2023/12/16 10:54:41;;;;;;;0.73;0.73;;;9.20;99.90;;;;;;4419819;32;20093;-59
2023/12/16 10:57:17;;;;;;;0.80;0.80;;;9.30;99.90;;;;;;4422641;32;20141;-59
2023/12/16 10:59:47;;;;;;;8.50;1.48;;;9.40;99.90;;;;;;4417319;32;20054;-59
2023/12/16 11:02:28;;;;;;;0.43;0.43;;;9.40;99.90;;;;;;4430945;32;20077;-61
2023/12/16 11:04:57;;;;;;;;;;;9.40;99.90;;;;;;4419542;32;20381;-60
2023/12/16 11:07:25;;;;;;;0.52;0.52;;;9.40;99.90;;;;;;4424384;32;19952;-60
2023/12/16 11:09:51;;;;;;;0.40;0.40;;;9.40;99.90;;;;;;4420489;32;20077;-60
2023/12/16 11:12:19;;;;;;;5.00;0.47;;;9.40;99.90;;;;;;4425805;32;20531;-60
2023/12/16 11:14:46;;;;;;;5.68;1.27;;;9.60;99.90;;;;;;4418213;32;20442;-59
2023/12/16 11:17:21;;;;;;;0.47;0.47;;;9.60;99.90;;;;;;4424351;32;20658;-60
2023/12/16 11:19:59;;;;;;;1.50;0.65;;;9.70;99.90;;;;;;4422245;32;20066;-60
2023/12/16 11:22:25;;;;;;;1.55;1.12;;;9.60;99.90;;;;;;4423670;32;20064;-59
2023/12/16 11:24:52;;;;;;;0.50;0.50;;;9.70;99.90;;;;;;4423903;32;20435;-59
2023/12/16 11:27:20;;;;;;;9.52;1.17;;;9.70;99.90;;;;;;4424893;32;20139;-61
2023/12/16 11:29:46;;;;;;;0.75;0.75;;;9.80;99.90;;;;;;4413194;32;20078;-59
2023/12/16 11:32:12;;;;;;;0.60;0.60;;;9.80;99.90;;;;;;4419115;32;20077;-60
2023/12/16 11:34:44;;;;;;;0.77;0.77;;;9.90;99.90;;;;;;4425305;32;20070;-60
2023/12/16 11:37:10;;;;;;;0.68;0.68;;;10.00;99.90;;;;;;4424245;32;20078;-59
2023/12/16 11:39:40;;;;;;;5.85;1.15;;;9.80;99.90;;;;;;4419022;32;20073;-59
2023/12/16 11:42:10;;;;;;;8.00;0.93;;;9.80;99.90;;;;;;4427305;32;20049;-60
2023/12/16 11:44:52;;;;;;;2.03;0.82;;;9.70;99.90;;;;;;4445006;32;20398;-59
2023/12/16 11:47:24;;;;;;;0.50;0.50;;;9.70;99.90;;;;;;4439568;32;20215;-59
2023/12/16 11:49:50;;;;;;;0.30;0.30;;;9.70;99.90;;;;;;4439084;32;87742;-59
2023/12/16 11:52:18;;;;;;;1.95;0.75;;;9.60;99.90;;;;;;4422941;32;20061;-60
2023/12/16 11:54:44;;;;;;;3.30;0.80;;;9.50;99.90;;;;;;4421714;32;20112;-59
2023/12/16 11:57:09;;;;;;;1.30;1.20;;;9.60;99.90;;;;;;4423603;32;20077;-60
2023/12/16 11:59:35;;;;;;;1.80;0.85;;;9.70;99.90;;;;;;4427405;32;20058;-59
2023/12/16 12:02:02;;;;;;;1.85;1.15;;;9.80;99.90;;;;;;4423687;32;20119;-59
2023/12/16 12:04:27;;;;;;;0.40;0.40;;;9.80;99.90;;;;;;4415287;32;20073;-61
2023/12/16 12:06:53;;;;;;;0.70;0.70;;;9.80;99.90;;;;;;4421660;32;20112;-59
2023/12/16 12:09:19;;;;;;;0.55;0.55;;;9.80;99.90;;;;;;4419130;32;20509;-60
2023/12/16 12:11:45;;;;;;;0.57;0.57;;;9.80;99.90;;;;;;4419547;32;20120;-60
2023/12/16 12:14:10;;;;;;;0.65;0.65;;;9.90;99.90;;;;;;4418867;32;20077;-60
2023/12/16 12:16:35;;;;;;;0.30;0.30;;;9.80;99.90;;;;;;4421605;32;20096;-61
2023/12/16 12:19:02;;;;;;;0.50;0.50;;;9.70;99.90;;;;;;4423134;32;20069;-61
2023/12/16 12:21:27;;;;;;;0.52;0.45;;;9.70;99.90;;;;;;4424265;32;20093;-59
2023/12/16 12:23:52;;;;;;;1.25;1.15;;;9.60;99.90;;;;;;4421467;32;20131;-60
2023/12/16 12:26:21;;;;;;;3.40;1.12;;;9.50;99.90;;;;;;4423713;32;20065;-61
2023/12/16 12:29:03;;;;;;;4.28;0.82;;;9.40;99.90;;;;;;4417074;32;20674;-60
2023/12/16 12:31:29;;;;;;;10.13;0.60;;;9.50;99.90;;;;;;4420523;32;20097;-60
2023/12/16 12:33:54;;;;;;;27.17;1.05;;;9.40;99.90;;;;;;4424707;32;20064;-61
2023/12/16 12:36:20;;;;;;;0.37;0.37;;;9.40;99.90;;;;;;4419139;32;20212;-60
2023/12/16 12:38:53;;;;;;;0.75;0.60;;;9.40;99.90;;;;;;4421632;32;20540;-61
2023/12/16 12:41:19;;;;;;;0.60;0.60;;;9.40;99.90;;;;;;4417348;32;20070;-59
2023/12/16 12:43:44;;;;;;;0.82;0.80;;;9.40;99.90;;;;;;4421539;32;20548;-60
2023/12/16 12:46:12;;;;;;;0.40;0.40;;;9.40;99.90;;;;;;4421197;32;20111;-60
2023/12/16 12:48:39;;;;;;;3.65;1.00;;;9.40;99.90;;;;;;4415144;32;20080;-60
2023/12/16 12:51:07;;;;;;;0.40;0.40;;;9.30;99.90;;;;;;4420105;32;20070;-61